createdAt,value
2023-03-22T00:02:02.645Z,11.03
2023-03-22T00:04:29.102Z,11.02
2023-03-22T00:06:55.462Z,11.02
2023-03-22T00:09:21.821Z,11.01
2023-03-22T00:11:50.937Z,11.02
2023-03-22T00:14:18.384Z,10.98
2023-03-22T00:16:46.186Z,10.98
2023-03-22T00:19:12.673Z,10.94
2023-03-22T00:21:39.034Z,10.94
2023-03-22T00:24:05.785Z,10.94
2023-03-22T00:26:32.155Z,10.94
2023-03-22T00:28:58.557Z,10.94
2023-03-22T00:31:25.112Z,10.92
2023-03-22T00:33:51.529Z,10.90
2023-03-22T00:36:17.981Z,10.89
2023-03-22T00:38:44.959Z,10.86
2023-03-22T00:41:17.362Z,10.81
2023-03-22T00:43:44.538Z,10.82
2023-03-22T00:46:12.449Z,10.78
2023-03-22T00:48:39.247Z,10.78
2023-03-22T00:51:06.522Z,10.76
2023-03-22T00:53:33.544Z,10.72
2023-03-22T00:56:00.251Z,10.70
2023-03-22T00:58:26.793Z,10.66
2023-03-22T01:00:53.348Z,10.64
2023-03-22T01:03:22.048Z,10.61
2023-03-22T01:05:51.857Z,10.59
2023-03-22T01:08:18.284Z,10.55
2023-03-22T01:10:44.828Z,10.53
2023-03-22T01:13:13.431Z,10.51
2023-03-22T01:15:41.253Z,10.49
2023-03-22T01:18:08.716Z,10.46
2023-03-22T01:20:36.185Z,10.44
2023-03-22T01:23:02.902Z,10.40
2023-03-22T01:25:29.450Z,10.35
2023-03-22T01:27:56.113Z,10.30
2023-03-22T01:30:22.554Z,10.21
2023-03-22T01:32:48.973Z,10.02
2023-03-22T01:35:15.509Z,10.10
2023-03-22T01:37:41.875Z,10.07
2023-03-22T01:40:08.766Z,9.89
2023-03-22T01:42:35.586Z,9.73
2023-03-22T01:45:39.988Z,9.62
2023-03-22T01:48:46.096Z,9.36
2023-03-22T01:51:16.530Z,9.39
2023-03-22T01:53:48.174Z,9.34
2023-03-22T01:56:14.644Z,9.42
2023-03-22T01:58:42.031Z,9.23
2023-03-22T02:01:10.287Z,9.31
2023-03-22T02:03:58.365Z,9.19
2023-03-22T02:06:26.430Z,9.06
2023-03-22T02:08:58.049Z,9.04
2023-03-22T02:11:38.466Z,8.92
2023-03-22T02:14:13.752Z,8.95
2023-03-22T02:17:01.251Z,8.93
2023-03-22T02:19:42.250Z,8.97
2023-03-22T02:22:39.362Z,9.00
2023-03-22T02:25:43.704Z,9.24
2023-03-22T02:28:10.122Z,9.31
2023-03-22T02:31:02.151Z,9.40
2023-03-22T02:33:59.686Z,9.45
2023-03-22T02:36:47.684Z,9.47
2023-03-22T02:39:31.614Z,9.54
2023-03-22T02:42:17.403Z,9.55
2023-03-22T02:45:01.428Z,9.56
2023-03-22T02:47:40.823Z,9.54
2023-03-22T02:50:15.217Z,9.59
2023-03-22T02:52:52.824Z,9.55
2023-03-22T02:55:45.296Z,9.54
2023-03-22T02:58:29.137Z,9.54
2023-03-22T03:01:01.780Z,9.56
2023-03-22T03:03:31.961Z,9.50
2023-03-22T03:06:08.359Z,9.50
2023-03-22T03:08:36.926Z,9.44
2023-03-22T03:11:03.447Z,9.40
2023-03-22T03:13:30.381Z,9.36
2023-03-22T03:15:59.457Z,9.39
2023-03-22T03:18:50.340Z,9.41
2023-03-22T03:21:19.600Z,9.37
2023-03-22T03:24:11.335Z,9.41
2023-03-22T03:27:00.809Z,9.39
2023-03-22T03:29:38.684Z,9.33
2023-03-22T03:32:31.479Z,9.29
2023-03-22T03:35:22.986Z,9.23
2023-03-22T03:37:53.822Z,9.27
2023-03-22T03:40:26.595Z,9.18
2023-03-22T03:42:56.080Z,9.22
2023-03-22T03:45:23.774Z,9.21
2023-03-22T03:47:56.853Z,9.18
2023-03-22T03:50:25.472Z,9.09
2023-03-22T03:52:53.787Z,9.07
2023-03-22T03:55:21.164Z,9.07
2023-03-22T03:57:47.715Z,9.06
2023-03-22T04:00:14.917Z,9.02
2023-03-22T04:02:42.439Z,9.00
2023-03-22T04:05:09.944Z,8.98
2023-03-22T04:07:37.208Z,9.00
2023-03-22T04:10:05.200Z,9.01
2023-03-22T04:12:32.526Z,8.99
2023-03-22T04:14:59.010Z,8.96
2023-03-22T04:17:27.064Z,8.98
2023-03-22T04:19:53.418Z,8.96
2023-03-22T04:22:19.806Z,8.96
2023-03-22T04:24:50.075Z,8.98
2023-03-22T04:27:17.988Z,9.03
2023-03-22T04:29:48.419Z,9.07
2023-03-22T04:32:19.048Z,9.05
2023-03-22T04:34:46.445Z,9.07
2023-03-22T04:37:13.808Z,9.03
2023-03-22T04:39:40.456Z,9.07
2023-03-22T04:42:06.828Z,9.08
2023-03-22T04:44:33.217Z,9.06
2023-03-22T04:46:59.612Z,9.03
2023-03-22T04:49:29.430Z,9.08
2023-03-22T04:51:56.010Z,9.11
2023-03-22T04:54:23.259Z,9.10
2023-03-22T04:56:50.065Z,9.17
2023-03-22T04:59:20.310Z,9.13
2023-03-22T05:01:51.358Z,9.15
2023-03-22T05:04:18.651Z,9.17
2023-03-22T05:06:45.616Z,9.18
2023-03-22T05:09:12.607Z,9.23
2023-03-22T05:11:40.574Z,9.31
2023-03-22T05:14:08.757Z,9.31
2023-03-22T05:16:35.874Z,9.34
2023-03-22T05:19:02.995Z,9.42
2023-03-22T05:21:36.808Z,9.43
2023-03-22T05:24:03.770Z,9.41
2023-03-22T05:26:30.410Z,9.45
2023-03-22T05:28:56.859Z,9.50
2023-03-22T05:31:23.959Z,9.52
2023-03-22T05:33:52.048Z,9.57
2023-03-22T05:36:20.510Z,9.59
2023-03-22T05:38:47.529Z,9.59
2023-03-22T05:41:14.041Z,9.63
2023-03-22T05:43:40.839Z,9.64
2023-03-22T05:46:11.782Z,9.64
2023-03-22T05:48:39.006Z,9.69
2023-03-22T05:51:10.286Z,9.68
2023-03-22T05:53:37.063Z,9.69
2023-03-22T05:56:03.684Z,9.75
2023-03-22T05:58:31.820Z,9.78
2023-03-22T06:01:00.944Z,9.84
2023-03-22T06:03:28.388Z,9.81
2023-03-22T06:05:54.940Z,9.87
2023-03-22T06:08:24.732Z,9.79
2023-03-22T06:10:53.396Z,9.75
2023-03-22T06:13:20.680Z,9.79
2023-03-22T06:15:47.407Z,9.68
2023-03-22T06:18:13.854Z,9.71
2023-03-22T06:20:40.733Z,9.71
2023-03-22T06:23:07.315Z,9.74
2023-03-22T06:25:33.719Z,9.74
2023-03-22T06:28:00.373Z,9.76
2023-03-22T06:30:26.971Z,9.84
2023-03-22T06:32:53.459Z,9.88
2023-03-22T06:35:20.085Z,9.93
2023-03-22T06:37:46.546Z,9.94
2023-03-22T06:40:12.947Z,10.06
2023-03-22T06:42:39.287Z,10.12
2023-03-22T06:45:07.049Z,10.20
2023-03-22T06:47:33.374Z,10.27
2023-03-22T06:49:59.726Z,10.25
2023-03-22T06:52:26.135Z,10.31
2023-03-22T06:54:52.578Z,10.40
2023-03-22T06:57:18.970Z,10.47
2023-03-22T06:59:45.492Z,10.50
2023-03-22T07:02:12.153Z,10.45
2023-03-22T07:04:38.602Z,10.52
2023-03-22T07:07:05.627Z,10.50
2023-03-22T07:09:31.991Z,10.51
2023-03-22T07:11:58.354Z,10.55
2023-03-22T07:14:24.739Z,10.57
2023-03-22T07:16:51.164Z,10.66
2023-03-22T07:19:18.379Z,10.72
2023-03-22T07:21:44.825Z,10.87
2023-03-22T07:24:11.996Z,11.05
2023-03-22T07:26:39.049Z,11.17
2023-03-22T07:29:05.418Z,11.41
2023-03-22T07:31:36.361Z,11.55
2023-03-22T07:34:04.081Z,11.67
2023-03-22T07:36:30.975Z,11.84
2023-03-22T07:38:57.765Z,12.02
2023-03-22T07:41:25.381Z,12.02
2023-03-22T07:43:56.828Z,11.98
2023-03-22T07:46:28.783Z,11.97
2023-03-22T07:48:55.180Z,11.96
2023-03-22T07:51:21.498Z,11.93
2023-03-22T07:53:47.919Z,11.88
2023-03-22T07:56:14.390Z,11.82
2023-03-22T07:58:40.923Z,11.84
2023-03-22T08:01:10.816Z,11.85
2023-03-22T08:03:37.677Z,11.83
2023-03-22T08:06:07.731Z,11.83
2023-03-22T08:08:35.564Z,11.78
2023-03-22T08:11:02.078Z,11.77
2023-03-22T08:13:28.592Z,11.75
2023-03-22T08:15:55.193Z,11.76
2023-03-22T08:18:21.843Z,11.71
2023-03-22T08:20:54.585Z,11.71
2023-03-22T08:23:28.791Z,11.74
2023-03-22T08:26:01.359Z,11.76
2023-03-22T08:28:27.770Z,11.75
2023-03-22T08:30:54.153Z,11.75
2023-03-22T08:33:23.473Z,11.82
2023-03-22T08:35:50.655Z,11.87
2023-03-22T08:38:18.032Z,11.89
2023-03-22T08:40:47.902Z,11.90
2023-03-22T08:43:14.256Z,11.90
2023-03-22T08:45:41.042Z,11.92
2023-03-22T08:48:07.631Z,11.94
2023-03-22T08:50:34.908Z,12.01
2023-03-22T08:53:01.299Z,12.05
2023-03-22T08:55:27.809Z,12.19
2023-03-22T08:57:58.682Z,12.35
2023-03-22T09:00:25.478Z,12.60
2023-03-22T09:02:52.036Z,12.86
2023-03-22T09:05:18.628Z,12.96
2023-03-22T09:07:45.268Z,13.20
2023-03-22T09:10:11.931Z,13.21
2023-03-22T09:12:38.746Z,13.20
2023-03-22T09:15:06.243Z,13.09
2023-03-22T09:17:32.943Z,13.59
2023-03-22T09:20:11.637Z,13.30
2023-03-22T09:22:38.850Z,13.35
2023-03-22T09:25:06.438Z,13.49
2023-03-22T09:27:33.187Z,13.87
2023-03-22T09:30:00.216Z,14.07
2023-03-22T09:32:26.620Z,14.15
2023-03-22T09:34:53.169Z,14.00
2023-03-22T09:37:20.297Z,13.74
2023-03-22T09:39:46.739Z,13.74
2023-03-22T09:42:38.363Z,13.43
2023-03-22T09:45:08.674Z,13.47
2023-03-22T09:47:44.841Z,13.32
2023-03-22T09:50:19.902Z,13.00
2023-03-22T09:52:46.530Z,12.97
2023-03-22T09:55:33.180Z,13.00
2023-03-22T09:58:10.713Z,12.92
2023-03-22T10:00:43.338Z,13.18
2023-03-22T10:03:41.232Z,13.44
2023-03-22T10:06:21.759Z,13.32
2023-03-22T10:09:03.332Z,13.68
2023-03-22T10:11:48.045Z,13.64
2023-03-22T10:14:36.024Z,13.65
2023-03-22T10:17:08.484Z,13.66
2023-03-22T10:19:53.064Z,13.52
2023-03-22T10:22:25.115Z,13.38
2023-03-22T10:24:53.317Z,13.41
2023-03-22T10:27:22.292Z,13.42
2023-03-22T10:29:55.777Z,13.50
2023-03-22T10:33:04.473Z,13.63
2023-03-22T10:35:31.894Z,13.69
2023-03-22T10:38:01.941Z,13.75
2023-03-22T10:40:34.061Z,13.60
2023-03-22T10:43:07.717Z,13.58
2023-03-22T10:45:36.086Z,13.50
2023-03-22T10:48:21.202Z,13.40
2023-03-22T10:50:47.768Z,13.31
2023-03-22T10:53:20.033Z,13.27
2023-03-22T10:55:46.492Z,13.36
2023-03-22T10:58:18.910Z,13.38
2023-03-22T11:00:51.800Z,13.30
2023-03-22T11:03:31.898Z,13.16
2023-03-22T11:06:11.483Z,13.10
2023-03-22T11:08:47.675Z,13.12
2023-03-22T11:11:19.972Z,13.18
2023-03-22T11:13:52.390Z,13.07
2023-03-22T11:16:20.164Z,13.14
2023-03-22T11:18:47.113Z,13.12
2023-03-22T11:21:17.004Z,13.12
2023-03-22T11:23:58.346Z,13.08
2023-03-22T11:26:27.678Z,13.02
2023-03-22T11:29:04.569Z,12.89
2023-03-22T11:31:55.142Z,12.94
2023-03-22T11:34:24.255Z,12.93
2023-03-22T11:36:57.090Z,12.94
2023-03-22T11:39:28.089Z,12.97
2023-03-22T11:41:58.199Z,12.85
2023-03-22T11:44:27.026Z,12.95
2023-03-22T11:47:00.585Z,12.95
2023-03-22T11:49:37.638Z,13.04
2023-03-22T11:52:11.291Z,13.00
2023-03-22T11:54:39.528Z,13.15
2023-03-22T11:57:13.402Z,13.18
2023-03-22T11:59:58.267Z,13.19
2023-03-22T12:02:32.406Z,13.09
2023-03-22T12:05:05.436Z,13.22
2023-03-22T12:07:34.501Z,13.22
2023-03-22T12:10:15.768Z,13.26
2023-03-22T12:12:51.612Z,13.18
2023-03-22T12:15:22.270Z,13.06
2023-03-22T12:17:58.673Z,13.02
2023-03-22T12:20:43.103Z,13.00
2023-03-22T12:23:15.555Z,13.02
2023-03-22T12:25:49.157Z,12.99
2023-03-22T12:28:20.231Z,13.00
2023-03-22T12:30:51.328Z,13.00
2023-03-22T12:33:27.437Z,12.97
2023-03-22T12:35:58.706Z,13.04
2023-03-22T12:38:37.056Z,13.03
2023-03-22T12:41:09.785Z,12.99
2023-03-22T12:43:44.380Z,12.96
2023-03-22T12:46:19.385Z,12.92
2023-03-22T12:48:48.443Z,12.88
2023-03-22T12:51:15.577Z,12.85
2023-03-22T12:53:46.886Z,12.82
2023-03-22T12:56:17.485Z,12.85
2023-03-22T12:58:51.792Z,12.85
2023-03-22T13:01:30.065Z,12.77
2023-03-22T13:03:57.793Z,12.77
2023-03-22T13:06:58.589Z,12.73
2023-03-22T13:09:27.663Z,12.78
2023-03-22T13:12:16.375Z,12.73
2023-03-22T13:14:48.872Z,12.72
2023-03-22T13:17:35.624Z,12.73
2023-03-22T13:20:11.442Z,12.71
2023-03-22T13:22:38.030Z,12.78
2023-03-22T13:25:12.468Z,12.72
2023-03-22T13:28:03.301Z,12.74
2023-03-22T13:30:34.658Z,12.69
2023-03-22T13:33:10.314Z,12.68
2023-03-22T13:35:39.891Z,12.75
2023-03-22T13:38:19.624Z,12.70
2023-03-22T13:40:51.813Z,12.71
2023-03-22T13:43:27.352Z,12.69
2023-03-22T13:46:06.967Z,12.68
2023-03-22T13:48:43.911Z,12.64
2023-03-22T13:51:25.765Z,12.71
2023-03-22T13:54:00.340Z,12.74
2023-03-22T13:56:41.070Z,12.74
2023-03-22T13:59:32.402Z,12.70
2023-03-22T14:02:16.298Z,12.69
2023-03-22T14:04:46.151Z,12.74
2023-03-22T14:07:13.732Z,12.77
2023-03-22T14:09:48.703Z,12.81
2023-03-22T14:12:21.239Z,12.84
2023-03-22T14:14:54.911Z,12.90
2023-03-22T14:17:53.587Z,12.87
2023-03-22T14:20:22.833Z,12.88
